createdAt,value
2022-11-20T00:01:22.484Z,5.39
2022-11-20T00:03:49.371Z,5.36
2022-11-20T00:06:17.867Z,5.27
2022-11-20T00:08:45.005Z,5.24
2022-11-20T00:11:17.056Z,5.24
2022-11-20T00:13:44.682Z,5.12
2022-11-20T00:16:12.899Z,5.10
2022-11-20T00:18:39.370Z,5.06
2022-11-20T00:21:08.530Z,5.02
2022-11-20T00:23:35.125Z,5.21
2022-11-20T00:26:06.022Z,5.36
2022-11-20T00:28:32.863Z,5.48
2022-11-20T00:31:05.087Z,5.47
2022-11-20T00:33:31.889Z,5.56
2022-11-20T00:36:05.988Z,5.69
2022-11-20T00:38:33.293Z,5.75
2022-11-20T00:41:05.987Z,5.79
2022-11-20T00:43:32.474Z,5.71
2022-11-20T00:46:25.644Z,5.84
2022-11-20T00:48:52.278Z,5.79
2022-11-20T00:51:20.602Z,5.84
2022-11-20T00:53:47.797Z,5.89
2022-11-20T00:56:16.428Z,5.88
2022-11-20T00:58:44.806Z,5.85
2022-11-20T01:01:14.392Z,5.84
2022-11-20T01:03:43.166Z,5.84
2022-11-20T01:06:15.090Z,5.83
2022-11-20T01:08:41.712Z,5.78
2022-11-20T01:11:11.883Z,5.90
2022-11-20T01:13:38.817Z,5.82
2022-11-20T01:16:09.317Z,5.85
2022-11-20T01:18:36.451Z,5.89
2022-11-20T01:21:05.074Z,5.84
2022-11-20T01:23:35.227Z,5.95
2022-11-20T01:26:03.401Z,6.05
2022-11-20T01:28:30.338Z,6.03
2022-11-20T01:30:57.224Z,6.03
2022-11-20T01:33:24.155Z,6.00
2022-11-20T01:35:50.710Z,5.90
2022-11-20T01:38:17.498Z,6.03
2022-11-20T01:40:44.031Z,5.99
2022-11-20T01:43:19.546Z,6.14
2022-11-20T01:46:07.770Z,6.08
2022-11-20T01:48:45.887Z,6.13
2022-11-20T01:51:35.024Z,6.27
2022-11-20T01:54:08.113Z,6.34
2022-11-20T01:56:38.350Z,6.27
2022-11-20T01:59:06.784Z,6.26
2022-11-20T02:01:33.894Z,6.33
2022-11-20T02:04:01.110Z,6.41
2022-11-20T02:06:30.648Z,6.44
2022-11-20T02:08:57.268Z,6.53
2022-11-20T02:11:23.783Z,6.67
2022-11-20T02:13:50.578Z,6.88
2022-11-20T02:16:28.740Z,6.95
2022-11-20T02:18:56.939Z,6.93
2022-11-20T02:22:01.460Z,6.79
2022-11-20T02:24:29.269Z,6.69
2022-11-20T02:27:02.818Z,6.74
2022-11-20T02:29:35.039Z,6.91
2022-11-20T02:32:02.022Z,7.15
2022-11-20T02:34:28.847Z,7.27
2022-11-20T02:36:55.815Z,7.29
2022-11-20T02:39:24.322Z,7.06
2022-11-20T02:41:53.375Z,7.05
2022-11-20T02:44:20.036Z,7.12
2022-11-20T02:46:47.189Z,7.09
2022-11-20T02:49:13.696Z,6.87
2022-11-20T02:51:40.174Z,6.98
2022-11-20T02:54:06.709Z,7.04
2022-11-20T02:56:33.222Z,6.97
2022-11-20T02:58:59.699Z,6.85
2022-11-20T03:01:26.265Z,6.80
2022-11-20T03:03:53.181Z,6.70
2022-11-20T03:06:19.732Z,6.65
2022-11-20T03:08:46.227Z,6.70
2022-11-20T03:11:12.703Z,6.80
2022-11-20T03:13:39.284Z,6.67
2022-11-20T03:16:11.041Z,6.58
2022-11-20T03:18:37.495Z,6.58
2022-11-20T03:21:04.288Z,6.57
2022-11-20T03:23:31.970Z,6.71
2022-11-20T03:26:28.800Z,6.61
2022-11-20T03:28:57.416Z,6.72
2022-11-20T03:31:31.042Z,6.81
2022-11-20T03:33:58.443Z,6.63
2022-11-20T03:36:25.300Z,6.62
2022-11-20T03:38:56.107Z,6.51
2022-11-20T03:41:25.113Z,6.56
2022-11-20T03:43:53.402Z,6.58
2022-11-20T03:46:19.893Z,6.46
2022-11-20T03:48:51.303Z,6.56
2022-11-20T03:51:26.810Z,6.68
2022-11-20T03:53:54.695Z,6.80
2022-11-20T03:56:24.566Z,6.78
2022-11-20T03:58:51.112Z,6.86
2022-11-20T04:01:20.091Z,6.91
2022-11-20T04:03:47.214Z,6.99
2022-11-20T04:06:50.053Z,6.91
2022-11-20T04:09:16.551Z,6.99
2022-11-20T04:11:43.038Z,7.21
2022-11-20T04:14:29.509Z,7.23
2022-11-20T04:16:55.962Z,7.38
2022-11-20T04:19:22.734Z,7.43
2022-11-20T04:21:49.551Z,7.51
2022-11-20T04:24:16.016Z,7.49
2022-11-20T04:26:42.554Z,7.44
2022-11-20T04:29:12.079Z,7.44
2022-11-20T04:31:38.549Z,7.46
2022-11-20T04:34:07.045Z,7.54
2022-11-20T04:36:34.603Z,7.60
2022-11-20T04:39:03.378Z,7.61
2022-11-20T04:41:32.561Z,7.71
2022-11-20T04:44:01.016Z,7.77
2022-11-20T04:46:28.340Z,7.68
2022-11-20T04:48:54.916Z,7.74
2022-11-20T04:51:23.571Z,7.75
2022-11-20T04:53:50.209Z,7.78
2022-11-20T04:56:17.110Z,7.71
2022-11-20T04:58:43.731Z,7.62
2022-11-20T05:01:14.010Z,7.49
2022-11-20T05:03:42.549Z,7.22
2022-11-20T05:06:10.578Z,7.19
2022-11-20T05:08:37.026Z,7.13
2022-11-20T05:11:05.369Z,7.06
2022-11-20T05:13:31.866Z,7.11
2022-11-20T05:16:09.811Z,7.12
2022-11-20T05:18:37.106Z,7.07
2022-11-20T05:21:03.961Z,7.36
2022-11-20T05:23:32.048Z,7.40
2022-11-20T05:25:59.690Z,7.48
2022-11-20T05:28:27.505Z,7.59
2022-11-20T05:30:54.102Z,7.68
2022-11-20T05:33:20.889Z,7.83
2022-11-20T05:35:47.377Z,7.86
2022-11-20T05:38:16.409Z,7.93
2022-11-20T05:40:42.896Z,7.97
2022-11-20T05:43:09.358Z,8.04
2022-11-20T05:45:35.823Z,8.03
2022-11-20T05:48:03.410Z,8.04
2022-11-20T05:50:31.517Z,8.05
2022-11-20T05:53:01.107Z,8.05
2022-11-20T05:55:28.147Z,7.92
2022-11-20T05:57:55.419Z,7.88
2022-11-20T06:00:22.108Z,7.93
2022-11-20T06:02:48.671Z,7.79
2022-11-20T06:05:15.354Z,7.77
2022-11-20T06:07:42.101Z,7.48
2022-11-20T06:10:08.955Z,7.59
2022-11-20T06:12:35.420Z,7.48
2022-11-20T06:15:01.919Z,7.29
2022-11-20T06:17:28.435Z,7.07
2022-11-20T06:19:54.945Z,7.03
2022-11-20T06:22:21.592Z,6.99
2022-11-20T06:24:48.356Z,7.00
2022-11-20T06:27:14.834Z,6.86
2022-11-20T06:29:41.283Z,6.83
2022-11-20T06:32:07.800Z,6.82
2022-11-20T06:34:34.379Z,6.74
2022-11-20T06:37:01.178Z,6.84
2022-11-20T06:39:27.913Z,6.79
2022-11-20T06:41:58.607Z,6.72
2022-11-20T06:44:25.827Z,6.77
2022-11-20T06:46:52.294Z,6.94
2022-11-20T06:49:18.952Z,7.09
2022-11-20T06:51:45.760Z,7.08
2022-11-20T06:54:12.211Z,7.01
2022-11-20T06:56:38.968Z,6.80
2022-11-20T06:59:07.192Z,6.92
2022-11-20T07:01:33.720Z,6.94
2022-11-20T07:04:00.214Z,6.89
2022-11-20T07:06:26.704Z,7.01
2022-11-20T07:08:53.164Z,7.15
2022-11-20T07:11:19.663Z,7.41
2022-11-20T07:13:46.320Z,7.53
2022-11-20T07:16:12.772Z,7.61
2022-11-20T07:18:40.395Z,7.36
2022-11-20T07:21:09.667Z,7.14
2022-11-20T07:23:36.461Z,7.34
2022-11-20T07:26:10.769Z,7.42
2022-11-20T07:28:37.901Z,7.45
2022-11-20T07:31:05.043Z,7.52
2022-11-20T07:33:31.607Z,7.60
2022-11-20T07:35:59.971Z,7.62
2022-11-20T07:38:26.476Z,7.41
2022-11-20T07:40:57.102Z,7.85
2022-11-20T07:43:23.587Z,8.05
2022-11-20T07:45:50.219Z,8.24
2022-11-20T07:48:16.846Z,8.23
2022-11-20T07:50:43.304Z,8.35
2022-11-20T07:53:09.989Z,8.48
2022-11-20T07:55:36.488Z,8.54
2022-11-20T07:58:03.047Z,8.59
2022-11-20T08:00:30.925Z,8.69
2022-11-20T08:02:57.522Z,8.77
2022-11-20T08:05:24.119Z,8.65
2022-11-20T08:07:50.573Z,8.72
2022-11-20T08:10:17.672Z,8.67
2022-11-20T08:12:46.091Z,8.74
2022-11-20T08:15:13.506Z,8.83
2022-11-20T08:17:40.218Z,9.00
2022-11-20T08:20:07.150Z,8.98
2022-11-20T08:22:33.670Z,8.91
2022-11-20T08:25:00.159Z,8.89
2022-11-20T08:27:26.635Z,9.02
2022-11-20T08:29:53.124Z,9.00
2022-11-20T08:32:20.479Z,8.98
2022-11-20T08:34:46.948Z,8.72
2022-11-20T08:37:13.418Z,8.69
2022-11-20T08:39:39.898Z,8.81
2022-11-20T08:42:09.506Z,8.82
2022-11-20T08:44:35.981Z,8.74
2022-11-20T08:47:02.452Z,8.70
2022-11-20T08:49:29.041Z,8.71
2022-11-20T08:51:55.526Z,8.72
2022-11-20T08:54:22.351Z,8.58
2022-11-20T08:56:49.334Z,8.62
2022-11-20T08:59:27.377Z,8.57
2022-11-20T09:02:02.505Z,8.65
2022-11-20T09:04:29.905Z,8.59
2022-11-20T09:06:56.387Z,8.50
2022-11-20T09:09:23.157Z,8.55
2022-11-20T09:11:49.933Z,8.78
2022-11-20T09:14:16.758Z,9.14
2022-11-20T09:16:43.236Z,9.47
2022-11-20T09:21:59.735Z,10.21
2022-11-20T09:24:27.523Z,10.03
2022-11-20T09:26:54.008Z,9.99
2022-11-20T09:29:20.737Z,10.29
2022-11-20T09:31:47.440Z,10.64
2022-11-20T09:34:13.947Z,10.68
2022-11-20T09:36:40.456Z,10.68
2022-11-20T09:39:07.087Z,10.61
2022-11-20T09:42:03.062Z,10.68
2022-11-20T09:44:33.736Z,10.37
2022-11-20T09:47:12.308Z,10.17
2022-11-20T09:50:08.237Z,10.09
2022-11-20T09:52:47.590Z,9.76
2022-11-20T09:55:15.929Z,9.93
2022-11-20T09:57:44.364Z,10.06
2022-11-20T10:00:12.651Z,9.90
2022-11-20T10:02:48.066Z,9.71
2022-11-20T10:05:20.178Z,9.61
2022-11-20T10:07:54.701Z,9.28
2022-11-20T10:10:33.832Z,9.14
2022-11-20T10:13:21.811Z,9.48
2022-11-20T10:16:00.348Z,9.75
2022-11-20T10:18:56.908Z,9.76
2022-11-20T10:21:31.655Z,9.74
2022-11-20T10:24:36.710Z,9.80
2022-11-20T10:27:30.880Z,9.75
2022-11-20T10:30:08.171Z,9.58
2022-11-20T10:32:41.037Z,9.41
2022-11-20T10:35:27.484Z,9.66
2022-11-20T10:37:59.946Z,9.93
2022-11-20T10:40:52.922Z,9.95
2022-11-20T10:43:22.929Z,10.11
2022-11-20T10:46:05.560Z,10.32
2022-11-20T10:48:33.222Z,10.32
2022-11-20T10:51:23.707Z,10.32
2022-11-20T10:53:53.118Z,10.28
2022-11-20T10:56:25.687Z,10.20
2022-11-20T10:59:13.181Z,10.39
2022-11-20T11:01:43.330Z,10.56
2022-11-20T11:04:27.571Z,10.49
2022-11-20T11:06:57.642Z,10.40
2022-11-20T11:09:33.195Z,10.35
2022-11-20T11:12:04.225Z,10.17
2022-11-20T11:14:43.536Z,10.23
2022-11-20T11:17:32.342Z,10.25
2022-11-20T11:20:20.131Z,10.17
2022-11-20T11:22:51.004Z,10.14
2022-11-20T11:25:23.251Z,9.92
2022-11-20T11:27:50.830Z,9.78
2022-11-20T11:30:19.431Z,9.65
2022-11-20T11:32:45.911Z,9.79
2022-11-20T11:35:32.985Z,9.83
2022-11-20T11:38:15.743Z,10.01
2022-11-20T11:40:45.082Z,10.14
2022-11-20T11:43:20.851Z,10.11
2022-11-20T11:45:53.878Z,9.98
2022-11-20T11:48:20.551Z,10.03
2022-11-20T11:50:51.728Z,10.11
2022-11-20T11:53:20.307Z,9.90
2022-11-20T11:56:09.834Z,9.86
2022-11-20T11:58:51.403Z,9.95
2022-11-20T12:01:33.189Z,10.01
2022-11-20T12:04:15.106Z,9.96
2022-11-20T12:06:44.432Z,9.65
2022-11-20T12:09:12.089Z,9.83
2022-11-20T12:11:43.831Z,9.81
2022-11-20T12:14:18.791Z,9.70
2022-11-20T12:16:45.486Z,9.46
2022-11-20T12:19:13.406Z,9.56
2022-11-20T12:21:57.274Z,9.54
2022-11-20T12:24:36.429Z,9.79
2022-11-20T12:27:15.083Z,9.70
2022-11-20T12:29:44.524Z,9.54
2022-11-20T12:32:17.063Z,9.70
2022-11-20T12:34:55.458Z,9.86
2022-11-20T12:37:34.093Z,9.98
2022-11-20T12:40:13.254Z,10.13
2022-11-20T12:42:48.165Z,9.96
2022-11-20T12:45:33.017Z,10.03
2022-11-20T12:48:14.438Z,10.04
2022-11-20T12:54:02.911Z,10.36
2022-11-20T12:56:49.355Z,10.42
2022-11-20T12:59:58.605Z,10.23
2022-11-20T13:02:42.486Z,10.16
2022-11-20T13:05:22.785Z,10.02
2022-11-20T13:07:49.282Z,9.85
2022-11-20T13:10:21.460Z,9.97
2022-11-20T13:12:55.350Z,10.09
2022-11-20T13:15:24.852Z,10.14
2022-11-20T13:18:01.104Z,9.89
2022-11-20T13:20:28.102Z,10.13
2022-11-20T13:22:56.492Z,10.20
2022-11-20T13:25:34.683Z,10.11
2022-11-20T13:28:04.771Z,9.98
2022-11-20T13:30:32.103Z,9.69
2022-11-20T13:33:10.506Z,9.58
2022-11-20T13:35:40.955Z,9.50
2022-11-20T13:38:15.414Z,9.49
2022-11-20T13:41:11.374Z,9.52
2022-11-20T13:43:41.071Z,9.60
2022-11-20T13:46:10.136Z,9.80
2022-11-20T13:48:40.466Z,9.95
2022-11-20T13:51:08.511Z,10.05
2022-11-20T13:54:08.827Z,10.17
2022-11-20T13:56:57.624Z,10.44
2022-11-20T13:59:49.133Z,10.28
2022-11-20T14:02:21.017Z,10.16
2022-11-20T14:04:50.857Z,10.51
2022-11-20T14:07:22.918Z,10.72
2022-11-20T14:09:57.064Z,10.72
2022-11-20T14:12:31.987Z,10.41
2022-11-20T14:14:59.261Z,10.17
2022-11-20T14:17:32.512Z,9.93
2022-11-20T14:20:07.462Z,9.64
2022-11-20T14:22:33.970Z,9.69
2022-11-20T14:25:15.403Z,9.69
2022-11-20T14:27:44.102Z,9.76
2022-11-20T14:30:25.784Z,9.70
2022-11-20T14:32:55.182Z,9.81
2022-11-20T14:35:27.186Z,9.61
2022-11-20T14:37:54.875Z,9.77
2022-11-20T14:40:30.944Z,9.84
2022-11-20T14:42:58.660Z,9.95
2022-11-20T14:45:26.092Z,10.05
2022-11-20T14:47:53.594Z,10.13
2022-11-20T14:50:29.538Z,10.03
2022-11-20T14:53:00.888Z,9.79
2022-11-20T14:55:35.301Z,9.86
2022-11-20T14:58:07.159Z,9.90
2022-11-20T15:00:35.706Z,9.77
2022-11-20T15:03:02.234Z,9.80
2022-11-20T15:05:49.406Z,9.86
2022-11-20T15:08:17.589Z,9.87
2022-11-20T15:10:48.814Z,9.76
2022-11-20T15:13:27.629Z,9.94
2022-11-20T15:15:58.851Z,9.73
2022-11-20T15:18:34.156Z,9.75
2022-11-20T15:21:07.338Z,9.65
2022-11-20T15:23:34.030Z,9.62
2022-11-20T15:26:00.557Z,9.38
2022-11-20T15:28:32.462Z,9.56
2022-11-20T15:30:59.523Z,9.32
2022-11-20T15:33:26.056Z,9.40
2022-11-20T15:35:55.161Z,9.34
2022-11-20T15:38:21.645Z,9.31
2022-11-20T15:40:48.179Z,9.26
2022-11-20T15:43:14.951Z,9.14
2022-11-20T15:45:44.973Z,9.20
2022-11-20T15:48:42.059Z,9.08
2022-11-20T15:51:19.430Z,9.17
2022-11-20T15:53:45.927Z,9.14
2022-11-20T15:56:13.450Z,8.94
2022-11-20T15:58:40.634Z,8.90
2022-11-20T16:01:14.057Z,8.87
2022-11-20T16:03:40.727Z,8.89
2022-11-20T16:06:07.479Z,8.77
2022-11-20T16:08:34.423Z,8.80
2022-11-20T16:11:01.087Z,8.86
2022-11-20T16:13:27.711Z,8.89
2022-11-20T16:15:57.734Z,8.75
2022-11-20T16:18:24.266Z,8.76
2022-11-20T16:20:53.023Z,8.70
2022-11-20T16:23:19.967Z,8.82
2022-11-20T16:25:46.723Z,8.80
2022-11-20T16:28:18.407Z,8.79
2022-11-20T16:30:45.550Z,8.84
2022-11-20T16:33:15.108Z,8.70
2022-11-20T16:35:41.611Z,8.59
2022-11-20T16:38:08.321Z,8.65
2022-11-20T16:40:34.998Z,8.64
2022-11-20T16:43:10.415Z,8.61
2022-11-20T16:45:44.056Z,8.55
2022-11-20T16:48:15.428Z,8.62
2022-11-20T16:50:53.005Z,8.72
2022-11-20T16:53:20.922Z,8.68
2022-11-20T16:55:47.805Z,8.72
2022-11-20T16:58:15.267Z,8.67
2022-11-20T17:00:45.603Z,8.68
2022-11-20T17:03:15.082Z,8.54
2022-11-20T17:05:42.579Z,8.63
2022-11-20T17:08:09.097Z,8.52
2022-11-20T17:10:41.695Z,8.59
2022-11-20T17:13:08.231Z,8.35
2022-11-20T17:15:34.710Z,8.44
2022-11-20T17:18:01.161Z,8.34
2022-11-20T17:20:27.976Z,8.36
2022-11-20T17:22:54.462Z,8.38
2022-11-20T17:25:20.958Z,8.27
2022-11-20T17:27:47.422Z,8.42
2022-11-20T17:30:14.224Z,8.29
2022-11-20T17:32:40.710Z,8.21
2022-11-20T17:35:07.526Z,8.35
2022-11-20T17:37:34.030Z,8.27
2022-11-20T17:40:00.521Z,8.42
2022-11-20T17:42:27.475Z,8.40
2022-11-20T17:44:54.009Z,8.35
2022-11-20T17:47:20.492Z,8.37
2022-11-20T17:49:46.955Z,8.39
2022-11-20T17:52:13.544Z,8.51
2022-11-20T17:54:40.255Z,8.35
2022-11-20T17:57:06.986Z,8.40
2022-11-20T17:59:33.765Z,8.24
2022-11-20T18:02:03.688Z,8.05
2022-11-20T18:04:30.488Z,8.06
2022-11-20T18:06:57.032Z,8.23
2022-11-20T18:09:23.568Z,8.29
2022-11-20T18:11:50.075Z,8.30
2022-11-20T18:14:17.426Z,8.09
2022-11-20T18:16:46.391Z,8.02
2022-11-20T18:19:16.347Z,7.72
2022-11-20T18:21:43.102Z,7.13
2022-11-20T18:24:10.326Z,6.99
2022-11-20T18:26:42.785Z,7.02
2022-11-20T18:29:11.296Z,7.12
2022-11-20T18:31:38.034Z,7.10
2022-11-20T18:34:05.028Z,7.02
2022-11-20T18:36:32.027Z,6.99
2022-11-20T18:38:59.689Z,6.98
2022-11-20T18:41:27.954Z,6.96
2022-11-20T18:43:54.493Z,6.98
2022-11-20T18:46:21.267Z,7.01
2022-11-20T18:48:47.771Z,7.05
2022-11-20T18:51:14.398Z,7.00
2022-11-20T18:53:45.868Z,7.07
2022-11-20T18:56:13.834Z,6.88
2022-11-20T18:58:40.320Z,6.89
2022-11-20T19:01:07.946Z,6.88
2022-11-20T19:03:34.967Z,6.98
2022-11-20T19:06:01.438Z,6.96
2022-11-20T19:08:28.118Z,7.11
2022-11-20T19:10:54.580Z,7.16
2022-11-20T19:13:21.083Z,7.38
2022-11-20T19:15:47.648Z,7.30
2022-11-20T19:18:14.138Z,7.16
2022-11-20T19:20:40.641Z,7.13
2022-11-20T19:23:07.155Z,7.13
2022-11-20T19:25:37.914Z,7.17
2022-11-20T19:28:05.145Z,7.10
2022-11-20T19:30:33.101Z,7.10
2022-11-20T19:32:59.607Z,7.09
2022-11-20T19:35:26.119Z,7.12
2022-11-20T19:37:53.158Z,7.22
2022-11-20T19:40:19.698Z,7.22
2022-11-20T19:42:46.209Z,7.24
2022-11-20T19:45:12.709Z,7.39
2022-11-20T19:48:06.785Z,7.23
2022-11-20T19:50:26.187Z,7.00
2022-11-20T19:52:57.375Z,7.13
2022-11-20T19:55:25.406Z,7.24
2022-11-20T19:57:52.004Z,7.17
2022-11-20T20:00:26.612Z,7.07
2022-11-20T20:02:54.781Z,7.13
2022-11-20T20:05:21.423Z,7.34
2022-11-20T20:07:48.373Z,7.46
2022-11-20T20:10:14.996Z,7.45
2022-11-20T20:12:41.516Z,7.45
2022-11-20T20:15:08.431Z,7.26
2022-11-20T20:17:34.912Z,7.40
2022-11-20T20:20:01.439Z,7.47
2022-11-20T20:22:27.965Z,7.29
2022-11-20T20:24:54.457Z,7.30
2022-11-20T20:27:23.644Z,7.42
2022-11-20T20:29:50.142Z,7.43
2022-11-20T20:32:16.664Z,7.31
2022-11-20T20:34:43.147Z,7.28
2022-11-20T20:37:09.632Z,7.49
2022-11-20T20:39:36.146Z,7.19
2022-11-20T20:42:02.619Z,7.21
2022-11-20T20:44:29.120Z,6.97
2022-11-20T20:46:55.606Z,7.17
2022-11-20T20:49:22.366Z,7.03
2022-11-20T20:51:49.052Z,6.91
2022-11-20T20:54:15.559Z,6.85
2022-11-20T20:56:42.068Z,6.90
2022-11-20T20:59:08.619Z,6.86
2022-11-20T21:01:35.149Z,6.97
2022-11-20T21:04:01.741Z,6.93
2022-11-20T21:06:28.232Z,7.02
2022-11-20T21:08:54.723Z,6.91
2022-11-20T21:11:21.288Z,6.98
2022-11-20T21:13:48.244Z,6.90
2022-11-20T21:16:16.527Z,6.93
2022-11-20T21:18:43.086Z,6.86
2022-11-20T21:21:12.711Z,6.74
2022-11-20T21:23:39.260Z,6.75
2022-11-20T21:26:07.657Z,6.79
2022-11-20T21:28:35.591Z,6.83
2022-11-20T21:31:06.760Z,6.72
2022-11-20T21:33:45.751Z,6.74
2022-11-20T21:36:17.586Z,6.95
2022-11-20T21:38:45.212Z,7.06
2022-11-20T21:41:13.338Z,7.11
2022-11-20T21:43:40.216Z,7.13
2022-11-20T21:46:09.042Z,7.25
2022-11-20T21:48:37.479Z,7.29
2022-11-20T21:51:11.778Z,7.19
2022-11-20T21:53:41.754Z,7.41
2022-11-20T21:56:09.573Z,7.31
2022-11-20T21:58:37.372Z,7.30
2022-11-20T22:01:12.286Z,7.33
2022-11-20T22:03:39.448Z,7.44
2022-11-20T22:06:07.806Z,7.54
2022-11-20T22:08:37.241Z,7.55
2022-11-20T22:11:15.200Z,7.66
2022-11-20T22:13:46.192Z,7.43
2022-11-20T22:16:13.378Z,7.36
2022-11-20T22:18:47.658Z,7.17
2022-11-20T22:21:14.897Z,6.92
2022-11-20T22:23:41.503Z,6.92
2022-11-20T22:26:18.441Z,6.87
2022-11-20T22:28:49.506Z,6.89
2022-11-20T22:31:16.311Z,6.81
2022-11-20T22:33:43.475Z,6.84
2022-11-20T22:36:15.403Z,6.78
2022-11-20T22:38:41.905Z,6.76
2022-11-20T22:41:11.089Z,6.74
2022-11-20T22:43:38.051Z,6.77
2022-11-20T22:46:25.583Z,6.64
2022-11-20T22:48:53.091Z,6.66
2022-11-20T22:51:21.605Z,6.77
2022-11-20T22:53:48.718Z,7.01
2022-11-20T22:56:16.007Z,6.91
2022-11-20T22:58:45.107Z,6.89
2022-11-20T23:01:22.386Z,6.88
2022-11-20T23:03:51.007Z,6.93
2022-11-20T23:06:18.791Z,7.02
2022-11-20T23:08:45.790Z,7.00
2022-11-20T23:11:14.564Z,7.09
2022-11-20T23:13:42.232Z,7.02
2022-11-20T23:16:17.287Z,7.00
2022-11-20T23:18:44.261Z,7.09
2022-11-20T23:21:15.566Z,7.09
2022-11-20T23:23:44.151Z,7.17
2022-11-20T23:26:12.681Z,7.31
2022-11-20T23:28:42.547Z,7.18
2022-11-20T23:31:10.855Z,7.30
2022-11-20T23:33:43.088Z,7.29
2022-11-20T23:36:10.304Z,7.30
2022-11-20T23:38:36.804Z,7.14
2022-11-20T23:41:04.027Z,7.15
2022-11-20T23:43:30.815Z,7.13
2022-11-20T23:45:58.726Z,7.10
2022-11-20T23:48:29.415Z,7.21
2022-11-20T23:50:56.888Z,7.22
2022-11-20T23:53:24.670Z,7.12
2022-11-20T23:55:52.936Z,6.89
2022-11-20T23:58:20.561Z,6.97
